Time;durP1;ratioP1;P1;durP2;ratioP2;P2;SDS_P1;SDS_P2;PMS_P1;PMS_P2;Temp;Humidity;BMP_temperature;BMP_pressure;BME280_temperature;BME280_humidity;BME280_pressure;Samples;Min_cycle;Max_cycle;Signal;HPM_P1;HPM_P2
2021/12/29 00:02:14;;;;;;;22.23;11.75;;;6.10;99.90;;;;;;4995174;28;20073;-79
2021/12/29 00:04:39;;;;;;;23.38;11.35;;;6.10;99.90;;;;;;5006124;28;20409;-80
2021/12/29 00:07:05;;;;;;;24.30;11.70;;;6.10;99.90;;;;;;4983435;28;20034;-80
2021/12/29 00:09:33;;;;;;;24.92;11.55;;;6.10;99.90;;;;;;5004383;28;20038;-80
2021/12/29 00:11:58;;;;;;;23.88;12.13;;;6.10;99.90;;;;;;5000038;28;20542;-80
2021/12/29 00:14:24;;;;;;;23.10;11.05;;;6.10;99.90;;;;;;5005282;28;20069;-80
2021/12/29 00:16:51;;;;;;;21.90;10.43;;;6.10;99.90;;;;;;4999239;28;20031;-79
2021/12/29 00:19:16;;;;;;;20.55;10.55;;;6.10;99.90;;;;;;4999648;28;20046;-80
2021/12/29 00:21:42;;;;;;;25.10;11.50;;;6.10;99.90;;;;;;5002860;28;20415;-79
2021/12/29 00:24:08;;;;;;;19.40;9.45;;;6.20;99.90;;;;;;4995926;28;20067;-80
2021/12/29 00:26:34;;;;;;;17.33;9.77;;;6.10;99.90;;;;;;4997679;28;20129;-79
2021/12/29 00:29:00;;;;;;;18.33;10.05;;;6.10;99.90;;;;;;4984490;28;20044;-80
2021/12/29 00:31:31;;;;;;;17.75;10.18;;;6.20;99.90;;;;;;4998359;28;20492;-80
2021/12/29 00:33:58;;;;;;;19.27;9.98;;;6.20;99.90;;;;;;4999545;28;20103;-80
2021/12/29 00:36:24;;;;;;;24.40;9.68;;;6.20;99.90;;;;;;4998457;28;20077;-80
2021/12/29 00:38:50;;;;;;;22.85;9.65;;;6.30;99.90;;;;;;4999892;28;20496;-79
2021/12/29 00:41:16;;;;;;;26.63;10.80;;;6.30;99.90;;;;;;5004405;28;20176;-80
2021/12/29 00:43:44;;;;;;;23.65;9.77;;;6.30;99.90;;;;;;4981644;28;20117;-80
2021/12/29 00:46:12;;;;;;;30.33;11.02;;;6.30;99.90;;;;;;5007638;28;20538;-80
2021/12/29 00:48:41;;;;;;;32.00;12.15;;;6.30;99.90;;;;;;4992102;28;20039;-79
2021/12/29 00:51:07;;;;;;;28.38;11.18;;;6.30;99.90;;;;;;4999768;28;20048;-79
2021/12/29 00:53:33;;;;;;;31.83;12.20;;;6.30;99.90;;;;;;5000428;28;20041;-79
2021/12/29 00:56:00;;;;;;;44.55;12.27;;;6.30;99.90;;;;;;5007556;28;20050;-80
2021/12/29 00:58:25;;;;;;;31.85;12.23;;;6.30;99.90;;;;;;5002128;28;20042;-80
2021/12/29 01:00:52;;;;;;;44.78;12.38;;;6.30;99.90;;;;;;4995751;28;20042;-79
2021/12/29 01:03:18;;;;;;;37.22;11.88;;;6.30;99.90;;;;;;5003674;28;20157;-79
2021/12/29 01:05:44;;;;;;;48.25;12.55;;;6.30;99.90;;;;;;4999225;28;20038;-79
2021/12/29 01:08:10;;;;;;;50.92;13.77;;;6.40;99.90;;;;;;4994836;28;20034;-79
2021/12/29 01:10:37;;;;;;;57.95;13.88;;;6.40;99.90;;;;;;4997030;28;20034;-80
2021/12/29 01:13:03;;;;;;;56.97;14.52;;;6.40;99.90;;;;;;5024234;28;20152;-80
2021/12/29 01:15:36;;;;;;;56.47;15.27;;;6.40;99.90;;;;;;5007066;28;20042;-79
2021/12/29 01:18:05;;;;;;;61.63;15.73;;;6.40;99.90;;;;;;4998681;28;20104;-79
2021/12/29 01:20:32;;;;;;;62.10;15.77;;;6.40;99.90;;;;;;5004788;28;20495;-79
2021/12/29 01:22:59;;;;;;;46.85;13.65;;;6.40;99.90;;;;;;5000140;28;20503;-79
2021/12/29 01:25:26;;;;;;;57.40;16.42;;;6.40;99.90;;;;;;5002427;28;20092;-79
2021/12/29 01:27:51;;;;;;;66.65;16.23;;;6.40;99.90;;;;;;5002887;28;20500;-79
2021/12/29 01:30:18;;;;;;;77.85;15.60;;;6.50;99.90;;;;;;5008099;28;20030;-79
2021/12/29 01:32:43;;;;;;;59.60;15.88;;;6.40;99.90;;;;;;5005415;28;20034;-79
2021/12/29 01:35:11;;;;;;;70.70;14.98;;;6.40;99.90;;;;;;5002517;28;20053;-80
2021/12/29 01:37:37;;;;;;;78.03;16.50;;;6.50;99.90;;;;;;4998363;28;20096;-79
2021/12/29 01:40:06;;;;;;;78.30;16.42;;;6.50;99.90;;;;;;4980875;28;20073;-80
2021/12/29 01:42:32;;;;;;;76.95;16.63;;;6.50;99.90;;;;;;5002857;28;20046;-79
2021/12/29 01:44:57;;;;;;;92.70;16.85;;;6.50;99.90;;;;;;5007119;28;20046;-79
2021/12/29 01:47:31;;;;;;;113.25;17.08;;;6.50;99.90;;;;;;5011299;28;20507;-80
2021/12/29 01:50:00;;;;;;;85.07;16.77;;;6.40;99.90;;;;;;5011568;28;20053;-79
2021/12/29 01:52:29;;;;;;;88.47;16.40;;;6.50;99.90;;;;;;5007036;28;20049;-79
2021/12/29 01:54:55;;;;;;;93.95;17.98;;;6.50;99.90;;;;;;5010968;28;20423;-79
2021/12/29 01:57:20;;;;;;;93.38;17.58;;;6.50;99.90;;;;;;5010139;28;20045;-80
2021/12/29 01:59:46;;;;;;;84.45;18.20;;;6.50;99.90;;;;;;5009395;28;20070;-79
2021/12/29 02:02:15;;;;;;;90.03;18.77;;;6.50;99.90;;;;;;5010404;28;20046;-80
2021/12/29 02:04:46;;;;;;;82.15;19.35;;;6.50;99.90;;;;;;5007437;28;20092;-79
2021/12/29 02:07:12;;;;;;;78.30;19.17;;;6.50;99.90;;;;;;5000467;28;20034;-80
2021/12/29 02:09:37;;;;;;;73.13;18.67;;;6.40;99.90;;;;;;5004820;28;20037;-80
2021/12/29 02:12:04;;;;;;;68.80;18.30;;;6.50;99.90;;;;;;5003439;28;20038;-79
2021/12/29 02:14:30;;;;;;;74.97;18.65;;;6.50;99.90;;;;;;4998208;28;20045;-79
2021/12/29 02:16:56;;;;;;;72.70;17.33;;;6.60;99.90;;;;;;4981145;28;20491;-79
2021/12/29 02:19:23;;;;;;;66.18;16.58;;;6.60;99.90;;;;;;4999131;28;20042;-79
2021/12/29 02:22:01;;;;;;;76.20;18.63;;;6.60;99.90;;;;;;5003551;28;20419;-79
2021/12/29 02:24:37;;;;;;;66.13;16.35;;;6.60;99.90;;;;;;5002147;28;20125;-79
2021/12/29 02:27:04;;;;;;;59.50;14.57;;;6.60;99.90;;;;;;5010607;28;20399;-79
2021/12/29 02:29:32;;;;;;;57.10;15.55;;;6.50;99.90;;;;;;5002870;28;20478;-80
2021/12/29 02:31:58;;;;;;;64.03;15.50;;;6.60;99.90;;;;;;5003569;28;20043;-80
2021/12/29 02:34:24;;;;;;;57.17;14.35;;;6.60;99.90;;;;;;5006729;28;20084;-79
2021/12/29 02:36:49;;;;;;;50.10;13.27;;;6.70;99.90;;;;;;5007256;28;20042;-80
2021/12/29 02:39:20;;;;;;;45.47;12.57;;;6.70;99.90;;;;;;5004814;28;20117;-80
2021/12/29 02:41:51;;;;;;;52.60;13.10;;;6.60;99.90;;;;;;4978166;28;20064;-80
2021/12/29 02:44:24;;;;;;;54.35;12.57;;;6.70;99.90;;;;;;4993108;28;20054;-80
2021/12/29 02:46:50;;;;;;;48.85;12.70;;;6.70;99.90;;;;;;4998456;28;20499;-79
2021/12/29 02:49:15;;;;;;;40.95;11.98;;;6.70;99.90;;;;;;5008436;28;20049;-79
2021/12/29 02:51:41;;;;;;;49.97;12.93;;;6.70;99.90;;;;;;5002198;28;20031;-79
2021/12/29 02:54:08;;;;;;;44.45;12.02;;;6.80;99.90;;;;;;4993205;28;20217;-79
2021/12/29 02:56:33;;;;;;;43.45;13.18;;;6.80;99.90;;;;;;5008998;28;20080;-79
2021/12/29 02:58:59;;;;;;;42.90;12.10;;;6.80;99.90;;;;;;5009262;28;20041;-79
2021/12/29 03:01:27;;;;;;;43.78;11.98;;;6.80;99.90;;;;;;5002903;28;20045;-79
2021/12/29 03:03:57;;;;;;;41.90;11.85;;;6.80;99.90;;;;;;4999417;28;20117;-80
2021/12/29 03:06:23;;;;;;;44.55;11.48;;;6.90;99.90;;;;;;5006922;28;20034;-80
2021/12/29 03:08:49;;;;;;;43.00;11.95;;;6.90;99.90;;;;;;5000999;28;20088;-80
2021/12/29 03:11:15;;;;;;;35.67;11.15;;;6.90;99.90;;;;;;4996144;28;20038;-79
2021/12/29 03:13:41;;;;;;;44.75;13.10;;;6.90;99.90;;;;;;5005250;28;20089;-80
2021/12/29 03:16:07;;;;;;;49.50;13.63;;;6.90;99.90;;;;;;5005429;28;20042;-80
2021/12/29 03:18:33;;;;;;;47.60;13.18;;;7.00;99.90;;;;;;5006359;28;20223;-80
2021/12/29 03:20:59;;;;;;;44.55;14.07;;;7.00;99.90;;;;;;5002022;28;20036;-80
2021/12/29 03:23:24;;;;;;;40.75;13.40;;;7.00;99.90;;;;;;4993119;28;20049;-80
2021/12/29 03:25:51;;;;;;;49.38;14.30;;;7.00;99.90;;;;;;5002674;28;20539;-80
2021/12/29 03:28:19;;;;;;;48.97;15.35;;;7.10;99.90;;;;;;4980717;28;20076;-80
2021/12/29 03:30:50;;;;;;;47.70;15.52;;;7.00;99.90;;;;;;4997277;28;20053;-80
2021/12/29 03:33:15;;;;;;;61.10;17.05;;;7.10;99.90;;;;;;4996325;28;20052;-80
2021/12/29 03:36:02;;;;;;;59.22;17.58;;;7.10;99.90;;;;;;5005048;28;20042;-80
2021/12/29 03:38:30;;;;;;;45.25;16.45;;;7.10;99.90;;;;;;5008488;28;20038;-80
2021/12/29 03:40:57;;;;;;;58.97;18.20;;;7.10;99.90;;;;;;4992313;28;20049;-81
2021/12/29 03:43:24;;;;;;;60.13;17.95;;;7.10;99.90;;;;;;5002393;28;20408;-80
2021/12/29 03:45:51;;;;;;;44.95;16.13;;;7.20;99.90;;;;;;5004420;28;20073;-80
2021/12/29 03:48:19;;;;;;;47.53;16.58;;;7.10;99.90;;;;;;4997241;28;20109;-80
2021/12/29 03:50:46;;;;;;;63.80;19.33;;;7.20;99.90;;;;;;4996931;28;20053;-80
2021/12/29 03:53:13;;;;;;;67.35;19.63;;;7.20;99.90;;;;;;4996139;28;20381;-80
2021/12/29 03:55:43;;;;;;;66.75;20.55;;;7.20;99.90;;;;;;4998389;28;20046;-80
2021/12/29 03:58:09;;;;;;;69.28;19.35;;;7.20;99.90;;;;;;4998974;28;20049;-80
2021/12/29 04:00:35;;;;;;;55.65;20.45;;;7.20;99.90;;;;;;5003432;28;20088;-80
2021/12/29 04:03:00;;;;;;;65.47;20.83;;;7.20;99.90;;;;;;5005226;28;20118;-80
2021/12/29 04:05:26;;;;;;;58.75;20.27;;;7.20;99.90;;;;;;5001306;28;20082;-80
2021/12/29 04:07:54;;;;;;;67.25;21.90;;;7.20;99.90;;;;;;4984144;28;20456;-80
2021/12/29 04:10:20;;;;;;;58.65;20.88;;;7.20;99.90;;;;;;5005270;28;20030;-80
2021/12/29 04:12:46;;;;;;;61.42;21.77;;;7.20;99.90;;;;;;5004662;28;20037;-80
2021/12/29 04:15:13;;;;;;;62.47;20.98;;;7.20;99.90;;;;;;5006154;28;20050;-80
2021/12/29 04:17:40;;;;;;;59.58;20.60;;;7.20;99.90;;;;;;5002908;28;20046;-80
2021/12/29 04:22:52;;;;;;;56.15;19.73;;;7.10;99.90;;;;;;4997923;28;20136;-80
2021/12/29 04:25:23;;;;;;;59.10;20.73;;;7.10;99.90;;;;;;4977430;28;20129;-80
2021/12/29 04:27:57;;;;;;;50.05;20.25;;;7.10;99.90;;;;;;5000650;28;20058;-80
2021/12/29 04:30:25;;;;;;;49.92;17.17;;;7.10;99.90;;;;;;5003905;28;20031;-80
2021/12/29 04:32:52;;;;;;;49.83;18.58;;;7.10;99.90;;;;;;4996120;28;20124;-80
2021/12/29 04:35:19;;;;;;;51.15;19.40;;;7.20;99.90;;;;;;5004519;28;20034;-80
2021/12/29 04:37:44;;;;;;;46.97;18.58;;;7.20;99.90;;;;;;4992361;28;20054;-80
2021/12/29 04:40:10;;;;;;;48.10;18.45;;;7.20;99.90;;;;;;4978071;28;20605;-80
2021/12/29 04:42:36;;;;;;;54.80;19.90;;;7.20;99.90;;;;;;5000783;28;20042;-80
2021/12/29 04:45:03;;;;;;;50.72;18.80;;;7.20;99.90;;;;;;5007040;28;20065;-80
2021/12/29 04:47:30;;;;;;;51.67;18.38;;;7.20;99.90;;;;;;5008618;28;20061;-80
2021/12/29 04:49:59;;;;;;;48.53;18.10;;;7.20;99.90;;;;;;5007572;28;20046;-80
2021/12/29 04:52:27;;;;;;;51.05;19.20;;;7.20;99.90;;;;;;4991341;28;20038;-80
2021/12/29 04:54:52;;;;;;;57.97;18.77;;;7.20;99.90;;;;;;4994370;28;20035;-81
2021/12/29 04:57:18;;;;;;;62.25;20.65;;;7.20;99.90;;;;;;5009023;28;20034;-81
2021/12/29 04:59:44;;;;;;;53.20;19.45;;;7.20;99.90;;;;;;5011303;28;20034;-81
2021/12/29 05:02:10;;;;;;;55.17;20.17;;;7.20;99.90;;;;;;5003664;28;20042;-81
2021/12/29 05:04:45;;;;;;;60.15;20.75;;;7.20;99.90;;;;;;5005654;28;20038;-81
2021/12/29 05:09:55;;;;;;;50.97;20.13;;;7.20;99.90;;;;;;5005302;28;20046;-81
2021/12/29 05:12:20;;;;;;;59.47;21.92;;;7.20;99.90;;;;;;5004308;28;20447;-81
2021/12/29 05:14:46;;;;;;;53.22;20.48;;;7.20;99.90;;;;;;4982919;28;20034;-81
2021/12/29 05:17:11;;;;;;;51.88;20.77;;;7.20;99.90;;;;;;4987402;28;20038;-80
2021/12/29 05:19:37;;;;;;;51.50;20.80;;;7.20;99.90;;;;;;4999283;28;20042;-80
2021/12/29 05:22:04;;;;;;;58.33;20.83;;;7.30;99.90;;;;;;4996989;28;20045;-80
2021/12/29 05:24:29;;;;;;;66.35;21.15;;;7.30;99.90;;;;;;5004323;28;20035;-80
2021/12/29 05:26:55;;;;;;;59.55;21.50;;;7.20;99.90;;;;;;5007933;28;20088;-81
2021/12/29 05:29:21;;;;;;;61.58;21.42;;;7.20;99.90;;;;;;4982846;28;20451;-80
2021/12/29 05:31:46;;;;;;;58.17;22.23;;;7.30;99.90;;;;;;4983549;28;20042;-80
2021/12/29 05:34:12;;;;;;;56.42;20.23;;;7.20;99.90;;;;;;4986388;28;20054;-81
2021/12/29 05:36:37;;;;;;;66.10;21.50;;;7.30;99.90;;;;;;5005919;28;20859;-81
2021/12/29 05:39:03;;;;;;;63.28;22.77;;;7.30;99.90;;;;;;4981221;28;20039;-81
2021/12/29 05:41:29;;;;;;;66.70;23.67;;;7.20;99.90;;;;;;5007033;28;20056;-81
2021/12/29 05:43:55;;;;;;;77.03;23.98;;;7.20;99.90;;;;;;4998493;28;20546;-81
2021/12/29 05:46:20;;;;;;;61.03;22.05;;;7.20;99.90;;;;;;5006505;28;20530;-81
2021/12/29 05:48:46;;;;;;;62.60;23.35;;;7.20;99.90;;;;;;4986510;28;20460;-81
2021/12/29 05:51:12;;;;;;;65.88;21.95;;;7.20;99.90;;;;;;5004960;28;20439;-80
2021/12/29 05:53:41;;;;;;;57.35;22.73;;;7.20;99.90;;;;;;4996909;28;20042;-81
2021/12/29 05:56:07;;;;;;;60.38;22.20;;;7.20;99.90;;;;;;5008214;28;20041;-81
2021/12/29 05:58:33;;;;;;;54.60;21.33;;;7.20;99.90;;;;;;5004649;28;21402;-81
2021/12/29 06:00:59;;;;;;;63.15;22.48;;;7.10;99.90;;;;;;5004787;28;20030;-81
2021/12/29 06:03:24;;;;;;;52.38;20.83;;;7.10;99.90;;;;;;5009363;28;20044;-80
2021/12/29 06:05:50;;;;;;;53.70;21.27;;;7.10;99.90;;;;;;5012319;28;20033;-80
2021/12/29 06:08:15;;;;;;;52.33;21.83;;;7.20;99.90;;;;;;5010495;28;20042;-80
2021/12/29 06:10:41;;;;;;;60.35;21.55;;;7.20;99.90;;;;;;5008910;28;20060;-80
2021/12/29 06:13:07;;;;;;;56.50;22.27;;;7.20;99.90;;;;;;5010287;28;20557;-80
2021/12/29 06:15:32;;;;;;;62.10;20.73;;;7.20;99.90;;;;;;5010091;28;20069;-80
2021/12/29 06:17:58;;;;;;;52.28;20.30;;;7.20;99.90;;;;;;5010284;28;20038;-80
2021/12/29 06:20:24;;;;;;;56.97;20.75;;;7.20;99.90;;;;;;5011305;28;20041;-80
2021/12/29 06:22:49;;;;;;;60.30;20.27;;;7.10;99.90;;;;;;5003459;28;20081;-80
2021/12/29 06:25:17;;;;;;;61.40;19.98;;;7.10;99.90;;;;;;4992847;28;20042;-80
2021/12/29 06:27:43;;;;;;;56.33;19.85;;;7.10;99.90;;;;;;5010328;28;20046;-80
2021/12/29 06:30:12;;;;;;;61.22;20.40;;;7.10;99.90;;;;;;5011273;28;20045;-80
2021/12/29 06:32:38;;;;;;;59.47;20.55;;;7.10;99.90;;;;;;5000465;28;20053;-80
2021/12/29 06:35:05;;;;;;;67.13;21.17;;;7.10;99.90;;;;;;4980718;28;20047;-80
2021/12/29 06:37:32;;;;;;;65.80;20.40;;;7.10;99.90;;;;;;5008812;28;20073;-80
2021/12/29 06:39:57;;;;;;;62.28;20.00;;;7.10;99.90;;;;;;5003794;28;20053;-80
2021/12/29 06:42:23;;;;;;;58.40;21.08;;;7.10;99.90;;;;;;5011271;28;20551;-80
2021/12/29 06:44:48;;;;;;;67.45;20.27;;;7.10;99.90;;;;;;5008616;28;20038;-80
2021/12/29 06:47:14;;;;;;;65.95;21.10;;;7.10;99.90;;;;;;4997147;28;20085;-80
2021/12/29 06:49:40;;;;;;;62.30;20.38;;;7.10;99.90;;;;;;4999850;28;20041;-80
2021/12/29 06:52:06;;;;;;;74.93;20.52;;;7.10;99.90;;;;;;4984324;28;20473;-80
2021/12/29 06:54:33;;;;;;;68.25;21.13;;;7.10;99.90;;;;;;4988479;28;20037;-79
2021/12/29 06:56:59;;;;;;;80.18;20.42;;;7.10;99.90;;;;;;4998483;28;20503;-80
2021/12/29 06:59:24;;;;;;;72.15;20.92;;;7.10;99.90;;;;;;4992820;28;20040;-80
2021/12/29 07:01:50;;;;;;;81.32;20.25;;;7.10;99.90;;;;;;4993245;28;20034;-80
2021/12/29 07:04:16;;;;;;;73.05;19.98;;;7.10;99.90;;;;;;4976528;28;20492;-80
2021/12/29 07:06:42;;;;;;;78.60;20.30;;;7.10;99.90;;;;;;4987028;28;20038;-80
2021/12/29 07:09:07;;;;;;;77.80;18.90;;;7.20;99.90;;;;;;5008432;28;20044;-80
2021/12/29 07:11:34;;;;;;;79.53;20.60;;;7.10;99.90;;;;;;4994582;28;20635;-80
2021/12/29 07:14:03;;;;;;;79.68;20.27;;;7.10;99.90;;;;;;5008792;28;20038;-80
2021/12/29 07:16:28;;;;;;;76.95;18.50;;;7.10;99.90;;;;;;5006715;28;20046;-80
2021/12/29 07:18:54;;;;;;;70.55;17.98;;;7.10;99.90;;;;;;4993515;28;20423;-80
2021/12/29 07:21:20;;;;;;;114.53;19.55;;;7.10;99.90;;;;;;4992378;28;20042;-80
2021/12/29 07:23:45;;;;;;;73.78;19.45;;;7.10;99.90;;;;;;5009463;28;20092;-80
2021/12/29 07:26:14;;;;;;;83.13;19.42;;;7.10;99.90;;;;;;5008261;28;20050;-80
2021/12/29 07:28:39;;;;;;;73.88;19.10;;;7.10;99.90;;;;;;5009701;28;20463;-80
2021/12/29 07:31:05;;;;;;;83.00;18.85;;;7.10;99.90;;;;;;5009564;28;20035;-80
2021/12/29 07:33:33;;;;;;;79.20;18.23;;;7.10;99.90;;;;;;5006916;28;20440;-80
2021/12/29 07:35:59;;;;;;;75.60;17.90;;;7.10;99.90;;;;;;5008941;28;20423;-80
2021/12/29 07:38:24;;;;;;;63.13;18.10;;;7.10;99.90;;;;;;4988862;28;20053;-80
2021/12/29 07:40:50;;;;;;;64.45;16.65;;;7.00;99.90;;;;;;5010476;28;20575;-80
2021/12/29 07:43:15;;;;;;;49.28;15.88;;;7.10;99.90;;;;;;5006784;28;20385;-81
2021/12/29 07:45:42;;;;;;;58.83;16.52;;;7.00;99.90;;;;;;5006772;28;20484;-80
2021/12/29 07:48:09;;;;;;;61.80;16.67;;;7.00;99.90;;;;;;5010185;28;20057;-80
2021/12/29 07:50:36;;;;;;;56.20;16.60;;;7.10;99.90;;;;;;5007363;28;20042;-80
2021/12/29 07:53:03;;;;;;;50.83;15.38;;;7.10;99.90;;;;;;5007043;28;20456;-80
2021/12/29 07:55:29;;;;;;;55.80;15.32;;;7.10;99.90;;;;;;4996698;28;20567;-80
2021/12/29 07:57:55;;;;;;;50.50;15.88;;;7.10;99.90;;;;;;4997729;28;20068;-80
2021/12/29 08:00:21;;;;;;;57.55;15.55;;;7.10;99.90;;;;;;5002273;28;20042;-81
2021/12/29 08:02:47;;;;;;;46.63;14.80;;;7.10;99.90;;;;;;4998451;28;20046;-81
2021/12/29 08:05:13;;;;;;;47.53;16.00;;;7.10;99.90;;;;;;4996527;28;20534;-80
2021/12/29 08:07:39;;;;;;;44.70;15.65;;;7.00;99.90;;;;;;4997375;28;20118;-80
2021/12/29 08:10:05;;;;;;;62.90;15.65;;;7.00;99.90;;;;;;5004295;28;20124;-80
2021/12/29 08:12:31;;;;;;;50.10;16.10;;;7.10;99.90;;;;;;4993725;28;20350;-80
2021/12/29 08:14:57;;;;;;;49.15;16.38;;;7.10;99.90;;;;;;4984032;28;20034;-80
2021/12/29 08:17:22;;;;;;;60.00;16.20;;;7.10;99.90;;;;;;5000623;28;20042;-80
2021/12/29 08:19:50;;;;;;;64.90;17.58;;;7.10;99.90;;;;;;5004807;28;20049;-80
2021/12/29 08:22:16;;;;;;;68.60;18.42;;;7.10;99.90;;;;;;4990919;28;20436;-81
2021/12/29 08:24:41;;;;;;;70.25;17.90;;;7.10;99.90;;;;;;5004124;28;20135;-80
2021/12/29 08:27:07;;;;;;;76.78;18.70;;;7.10;99.90;;;;;;5006978;28;20038;-80
2021/12/29 08:29:32;;;;;;;69.90;18.17;;;7.10;99.90;;;;;;5007304;28;20142;-80
2021/12/29 08:31:58;;;;;;;66.32;17.55;;;7.10;99.90;;;;;;5007282;28;20030;-80
2021/12/29 08:34:24;;;;;;;66.15;17.08;;;7.10;99.90;;;;;;5010035;28;20097;-80
2021/12/29 08:36:50;;;;;;;73.18;17.90;;;7.20;99.90;;;;;;4998803;28;20400;-80
2021/12/29 08:39:18;;;;;;;70.60;17.48;;;7.20;99.90;;;;;;4976250;28;20512;-80
2021/12/29 08:41:47;;;;;;;72.78;17.23;;;7.20;99.90;;;;;;4983388;28;20137;-80
2021/12/29 08:44:13;;;;;;;69.35;17.63;;;7.20;99.90;;;;;;5001694;28;20036;-80
2021/12/29 08:46:39;;;;;;;83.97;16.48;;;7.20;99.90;;;;;;4998703;28;20108;-81
2021/12/29 08:49:05;;;;;;;68.63;15.68;;;7.20;99.90;;;;;;5000658;28;20038;-80
2021/12/29 08:51:31;;;;;;;71.80;17.38;;;7.20;99.90;;;;;;5007284;28;20044;-80
2021/12/29 08:53:57;;;;;;;65.20;15.10;;;7.20;99.90;;;;;;4999089;28;20067;-79
2021/12/29 08:56:24;;;;;;;86.93;16.00;;;7.30;99.90;;;;;;5001874;28;20070;-80
2021/12/29 08:58:50;;;;;;;86.63;15.73;;;7.30;99.90;;;;;;5000174;28;20038;-80
2021/12/29 09:01:17;;;;;;;76.47;16.63;;;7.30;99.90;;;;;;5008183;28;20112;-80
2021/12/29 09:03:43;;;;;;;85.60;15.70;;;7.20;99.90;;;;;;5009900;28;20081;-79
2021/12/29 09:06:09;;;;;;;113.72;16.67;;;7.30;99.90;;;;;;5008858;28;20038;-80
2021/12/29 09:08:34;;;;;;;121.93;16.50;;;7.20;99.90;;;;;;5006579;28;20041;-80
2021/12/29 09:11:00;;;;;;;158.25;18.00;;;7.40;99.90;;;;;;5007221;28;20125;-80
2021/12/29 09:13:26;;;;;;;120.32;17.02;;;7.30;99.90;;;;;;5009441;28;20525;-80
2021/12/29 09:15:56;;;;;;;186.68;18.60;;;7.30;99.90;;;;;;5009377;28;20030;-80
2021/12/29 09:18:23;;;;;;;124.05;16.73;;;7.40;99.90;;;;;;5005844;28;20046;-81
2021/12/29 09:20:49;;;;;;;119.65;16.15;;;7.30;99.90;;;;;;4991079;28;20042;-79
2021/12/29 09:23:16;;;;;;;102.45;16.08;;;7.40;99.90;;;;;;5004700;28;20050;-80
2021/12/29 09:25:44;;;;;;;128.43;15.77;;;7.40;99.90;;;;;;4989722;28;20076;-80
2021/12/29 09:28:13;;;;;;;123.93;14.45;;;7.40;99.90;;;;;;5005290;28;20170;-80
2021/12/29 09:30:43;;;;;;;181.95;16.45;;;7.40;99.90;;;;;;4992440;28;20045;-80
2021/12/29 09:33:09;;;;;;;143.27;14.95;;;7.40;99.90;;;;;;5002030;28;20057;-80
2021/12/29 09:35:35;;;;;;;162.25;15.15;;;7.50;99.90;;;;;;5002562;28;20045;-80
2021/12/29 09:38:02;;;;;;;153.98;15.88;;;7.40;99.90;;;;;;5004805;28;20042;-80
2021/12/29 09:40:27;;;;;;;102.60;13.45;;;7.50;99.90;;;;;;5006799;28;20040;-80
2021/12/29 09:42:54;;;;;;;77.60;12.82;;;7.40;99.90;;;;;;4999229;28;20034;-80
2021/12/29 09:45:20;;;;;;;63.85;13.05;;;7.50;99.90;;;;;;4987309;28;20045;-80
2021/12/29 09:47:46;;;;;;;51.17;12.80;;;7.50;99.90;;;;;;5006571;28;20053;-80
2021/12/29 09:50:14;;;;;;;46.78;12.43;;;7.50;99.90;;;;;;5009302;28;20034;-80
2021/12/29 09:52:41;;;;;;;44.55;12.35;;;7.50;99.90;;;;;;5010149;28;20037;-80
2021/12/29 09:55:11;;;;;;;43.65;12.48;;;7.60;99.90;;;;;;5013407;28;20057;-80
2021/12/29 09:57:39;;;;;;;47.30;12.10;;;7.60;99.90;;;;;;5010875;28;20632;-81
2021/12/29 10:00:08;;;;;;;49.22;12.82;;;7.60;99.90;;;;;;5005741;28;20080;-82
2021/12/29 10:02:33;;;;;;;38.28;11.55;;;7.60;99.90;;;;;;5010590;28;20415;-81
2021/12/29 10:04:59;;;;;;;37.17;11.57;;;7.70;99.90;;;;;;5005633;28;20038;-81
2021/12/29 10:07:26;;;;;;;40.33;13.35;;;7.60;99.90;;;;;;5006598;28;20044;-81
2021/12/29 10:09:52;;;;;;;42.22;11.65;;;7.60;99.90;;;;;;5009946;28;20042;-81
2021/12/29 10:12:21;;;;;;;37.47;11.25;;;7.60;99.90;;;;;;5005613;28;20493;-81
2021/12/29 10:14:58;;;;;;;34.00;10.95;;;7.60;99.90;;;;;;5003240;28;20057;-82
2021/12/29 10:17:28;;;;;;;38.70;11.32;;;7.60;99.90;;;;;;4987337;28;20046;-81
2021/12/29 10:20:11;;;;;;;38.35;10.43;;;7.60;99.90;;;;;;5015899;28;20057;-81
2021/12/29 10:22:37;;;;;;;37.88;11.43;;;7.70;99.90;;;;;;5010891;28;20056;-81
2021/12/29 10:25:13;;;;;;;32.38;11.05;;;7.70;99.90;;;;;;5010627;28;20090;-81
2021/12/29 10:27:39;;;;;;;32.42;11.02;;;7.70;99.90;;;;;;5015594;28;20038;-85
2021/12/29 10:30:24;;;;;;;37.35;11.10;;;7.70;99.90;;;;;;5011545;28;20056;-81
2021/12/29 10:32:54;;;;;;;33.92;11.40;;;7.70;99.90;;;;;;5003016;28;20073;-81
2021/12/29 10:35:31;;;;;;;34.00;11.35;;;7.70;99.90;;;;;;4986207;28;20030;-82
2021/12/29 10:38:13;;;;;;;33.28;11.85;;;7.70;99.90;;;;;;4988863;28;20491;-81
2021/12/29 10:40:39;;;;;;;35.03;11.80;;;7.80;99.90;;;;;;5012295;28;20041;-80
2021/12/29 10:43:05;;;;;;;33.85;11.38;;;7.80;99.90;;;;;;5013968;28;20034;-80
2021/12/29 10:45:40;;;;;;;34.85;12.05;;;7.80;99.90;;;;;;5013171;28;20083;-79
2021/12/29 10:48:21;;;;;;;29.08;11.20;;;7.80;99.90;;;;;;4997203;28;20526;-80
2021/12/29 10:51:03;;;;;;;36.80;11.02;;;7.80;99.90;;;;;;5012061;28;20073;-80
2021/12/29 10:53:32;;;;;;;26.30;10.75;;;7.80;99.90;;;;;;5012727;28;20038;-80
2021/12/29 10:55:58;;;;;;;33.42;11.13;;;7.80;99.90;;;;;;5010308;28;20043;-80
2021/12/29 10:58:26;;;;;;;28.92;10.68;;;7.80;99.90;;;;;;5011762;28;20505;-80
2021/12/29 11:01:04;;;;;;;32.65;10.38;;;7.80;99.90;;;;;;5010194;28;20037;-80
2021/12/29 11:03:31;;;;;;;30.13;10.85;;;7.80;99.90;;;;;;5006701;28;20491;-80
2021/12/29 11:06:00;;;;;;;30.80;11.27;;;7.80;99.90;;;;;;5007030;28;20030;-79
2021/12/29 11:08:31;;;;;;;31.15;10.73;;;7.80;99.90;;;;;;5003093;28;20099;-80
2021/12/29 11:11:06;;;;;;;30.20;9.90;;;7.80;99.90;;;;;;4982363;28;20053;-80
2021/12/29 11:13:32;;;;;;;35.13;10.15;;;7.80;99.90;;;;;;5006872;28;20046;-80
2021/12/29 11:15:59;;;;;;;37.47;10.85;;;7.70;99.90;;;;;;4999456;28;20496;-80
2021/12/29 11:18:25;;;;;;;33.80;11.18;;;7.70;99.90;;;;;;4996861;28;20514;-80
2021/12/29 11:20:57;;;;;;;33.65;11.00;;;7.80;99.90;;;;;;5007257;28;20050;-80
2021/12/29 11:23:23;;;;;;;31.58;11.95;;;7.70;99.90;;;;;;4985208;28;20109;-80
2021/12/29 11:25:50;;;;;;;30.33;11.07;;;7.80;99.90;;;;;;5000483;28;20046;-79
2021/12/29 11:28:25;;;;;;;25.55;11.32;;;7.80;99.90;;;;;;5000179;28;20504;-80
2021/12/29 11:30:52;;;;;;;36.25;11.20;;;7.80;99.90;;;;;;5008144;28;20042;-80
2021/12/29 11:33:18;;;;;;;29.83;10.90;;;7.80;99.90;;;;;;4995373;28;20655;-80
2021/12/29 11:35:47;;;;;;;34.33;11.25;;;7.80;99.90;;;;;;4982983;28;20052;-80
2021/12/29 11:38:14;;;;;;;36.45;12.30;;;7.80;99.90;;;;;;5012471;28;20038;-80
2021/12/29 11:40:45;;;;;;;35.10;11.60;;;7.80;99.90;;;;;;5003364;28;20038;-80
2021/12/29 11:43:12;;;;;;;32.72;12.32;;;7.80;99.90;;;;;;5007693;28;20038;-80
2021/12/29 11:45:39;;;;;;;34.58;11.80;;;7.90;99.90;;;;;;5006719;28;20041;-80
2021/12/29 11:48:06;;;;;;;33.53;11.25;;;7.90;99.90;;;;;;5008663;28;20034;-80
2021/12/29 11:50:35;;;;;;;34.58;11.65;;;7.90;99.90;;;;;;5012039;28;20492;-80
2021/12/29 11:53:20;;;;;;;37.00;11.85;;;7.90;99.90;;;;;;5010134;28;20037;-80
2021/12/29 11:55:49;;;;;;;37.95;12.45;;;8.00;99.90;;;;;;5012714;28;20057;-80
2021/12/29 11:58:25;;;;;;;31.80;10.77;;;8.00;99.90;;;;;;5011304;28;20555;-80
2021/12/29 12:01:08;;;;;;;30.77;12.52;;;8.00;99.90;;;;;;5005930;28;20048;-80
2021/12/29 12:03:41;;;;;;;28.25;10.32;;;8.10;99.90;;;;;;5010834;28;20455;-80
2021/12/29 12:06:19;;;;;;;26.48;10.32;;;8.10;99.90;;;;;;5014012;28;20053;-79
2021/12/29 12:08:45;;;;;;;29.42;9.63;;;8.10;99.90;;;;;;5013097;28;20561;-80
2021/12/29 12:11:26;;;;;;;29.85;9.98;;;8.20;99.90;;;;;;5009604;28;20125;-80
2021/12/29 12:13:52;;;;;;;27.70;9.45;;;8.10;99.90;;;;;;5011868;28;20050;-80
2021/12/29 12:16:19;;;;;;;31.25;9.52;;;8.10;99.90;;;;;;5009348;28;20523;-80
2021/12/29 12:18:57;;;;;;;27.90;8.82;;;8.10;99.90;;;;;;5002528;28;20042;-80
2021/12/29 12:21:31;;;;;;;39.47;9.65;;;8.20;99.90;;;;;;5004159;28;20045;-80
2021/12/29 12:24:19;;;;;;;25.52;8.70;;;8.20;99.90;;;;;;5004308;28;20057;-80
2021/12/29 12:26:55;;;;;;;21.95;8.05;;;8.20;99.90;;;;;;5002700;28;20034;-80
2021/12/29 12:29:22;;;;;;;22.33;8.07;;;8.10;99.90;;;;;;5011174;28;20037;-79
2021/12/29 12:32:00;;;;;;;24.35;8.15;;;8.10;99.90;;;;;;5006452;28;20037;-79
2021/12/29 12:34:26;;;;;;;29.50;7.75;;;8.10;99.90;;;;;;5000628;28;20034;-80
2021/12/29 12:36:52;;;;;;;27.20;8.25;;;8.10;99.90;;;;;;5009182;28;20033;-80
2021/12/29 12:39:19;;;;;;;22.75;8.00;;;8.10;99.90;;;;;;5006240;28;20091;-79
2021/12/29 12:41:48;;;;;;;25.77;8.00;;;8.10;99.90;;;;;;4998944;28;20125;-80
2021/12/29 12:44:15;;;;;;;21.58;6.82;;;8.10;99.90;;;;;;5010067;28;20045;-80
2021/12/29 12:46:47;;;;;;;22.83;7.43;;;8.10;99.90;;;;;;5006834;28;20035;-80